NZWN/WLG METAR and TAF weather

Enter ICAO airport designator
Station Type Date Time Source
NZWN METAR 2021/01/16 03:30 UTC NOAA

NZWN 160330Z AUTO 36018KT 9999 NCD 23/16 Q1008 NOSIG


Station Type Date Time Source
NZWN Decoded METAR 2021/01/16 03:30 UTC NOAA

Wellington Airport, New Zealand (NZWN) 41-20S 174-48E 8M
Jan 15, 2021 - 10:30 PM EST / 2021.01.16 0330 UTC
Wind: from the N (360 degrees) at 21 MPH (18 KT):0
Visibility: greater than 7 mile(s):0
Temperature: 73 F (23 C)
Dew Point: 60 F (16 C)
Relative Humidity: 64%
Pressure (altimeter): 29.77 in. Hg (1008 hPa)
ob: NZWN 160330Z AUTO 36018KT 9999 NCD 23/16 Q1008 NOSIG
cycle: 3

Station Type Date Time Source
NZWN TAF 2021/01/15 18:06 UTC NOAA

TAF NZWN 151705Z 1518/1618 36008KT 9999 BKN014
BECMG 1519/1521 CAVOK
BECMG 1604/1606 36018KT PROB30 1610/1618 BKN014
BECMG 1612/1614 36020G30KT

Example: see airport list